Time;durP1;ratioP1;P1;durP2;ratioP2;P2;SDS_P1;SDS_P2;PMS_P1;PMS_P2;Temp;Humidity;BMP_temperature;BMP_pressure;BME280_temperature;BME280_humidity;BME280_pressure;Samples;Min_cycle;Max_cycle;Signal;HPM_P1;HPM_P2
2024/04/04 00:01:55;;;;;;;4.95;1.25;;;;;;;13.84;38.56;94842.16;5047457;28;20411;-81
2024/04/04 00:04:21;;;;;;;3.60;1.77;;;;;;;13.88;38.28;94840.00;5047391;28;20025;-81
2024/04/04 00:06:46;;;;;;;6.05;1.50;;;;;;;13.84;38.47;94844.91;5046547;28;20033;-79
2024/04/04 00:09:13;;;;;;;3.40;1.60;;;;;;;13.85;38.33;94843.69;5046869;28;20014;-80
2024/04/04 00:11:38;;;;;;;2.42;1.40;;;;;;;13.83;38.19;94832.34;5046039;28;20021;-81
2024/04/04 00:14:07;;;;;;;3.50;2.08;;;;;;;13.86;38.62;94847.97;5046629;28;20017;-80
2024/04/04 00:16:37;;;;;;;2.78;1.75;;;;;;;13.83;38.63;94840.63;5045900;28;20021;-80
2024/04/04 00:19:03;;;;;;;2.65;1.70;;;;;;;13.86;38.63;94842.44;5046083;28;20021;-80
2024/04/04 00:21:29;;;;;;;6.95;1.67;;;;;;;13.87;38.80;94838.44;5045968;28;20056;-79
2024/04/04 00:23:56;;;;;;;3.85;1.55;;;;;;;13.79;39.08;94831.72;5048674;28;20087;-80
2024/04/04 00:26:22;;;;;;;6.05;1.50;;;;;;;13.78;38.91;94838.47;5046211;28;20028;-79
2024/04/04 00:28:47;;;;;;;3.08;1.58;;;;;;;13.80;39.28;94841.53;5029470;28;20383;-80
2024/04/04 00:31:13;;;;;;;3.08;1.40;;;;;;;13.81;39.38;94840.28;5047623;28;20525;-80
2024/04/04 00:33:38;;;;;;;5.00;1.77;;;;;;;13.80;39.83;94830.47;5046326;28;20355;-80
2024/04/04 00:36:04;;;;;;;5.20;1.85;;;;;;;13.78;39.53;94833.72;5046175;28;20025;-81
2024/04/04 00:38:29;;;;;;;4.43;1.75;;;;;;;13.76;39.79;94824.31;5045812;28;20061;-81
2024/04/04 00:40:55;;;;;;;4.18;1.35;;;;;;;13.78;39.69;94816.38;5047204;28;20057;-80
2024/04/04 00:43:20;;;;;;;7.20;1.60;;;;;;;13.79;39.82;94821.44;5029030;28;20143;-80
2024/04/04 00:45:46;;;;;;;4.88;1.30;;;;;;;13.80;39.96;94814.66;5047340;28;20025;-80
2024/04/04 00:48:11;;;;;;;4.15;1.73;;;;;;;13.78;39.61;94816.38;5046264;28;20029;-81
2024/04/04 00:50:38;;;;;;;4.05;1.50;;;;;;;13.79;39.67;94823.41;5045621;28;20021;-80
2024/04/04 00:53:04;;;;;;;1.85;1.30;;;;;;;13.73;39.73;94831.56;5045824;28;20110;-79
2024/04/04 00:55:30;;;;;;;2.78;1.70;;;;;;;13.78;39.36;94825.41;5045434;28;20407;-81
2024/04/04 00:57:56;;;;;;;3.35;1.63;;;;;;;13.77;38.93;94825.88;5045592;28;20016;-80
2024/04/04 01:00:23;;;;;;;4.72;1.50;;;;;;;13.69;39.02;94817.13;5045222;28;20120;-81
2024/04/04 01:02:50;;;;;;;5.45;1.23;;;;;;;13.67;39.07;94816.81;5029174;28;20116;-79
2024/04/04 01:05:16;;;;;;;1.83;1.27;;;;;;;13.61;39.21;94812.38;5045658;28;20104;-81
2024/04/04 01:07:42;;;;;;;5.60;2.25;;;;;;;13.63;39.38;94821.72;5045228;28;20125;-81
2024/04/04 01:10:07;;;;;;;4.22;1.33;;;;;;;13.59;39.66;94825.84;5045559;28;20021;-81
2024/04/04 01:12:33;;;;;;;6.57;1.70;;;;;;;13.58;39.66;94827.84;5046708;28;20086;-80
2024/04/04 01:14:58;;;;;;;1.95;1.23;;;;;;;13.58;39.85;94835.38;5029004;28;20518;-80
2024/04/04 01:17:24;;;;;;;2.83;1.52;;;;;;;13.57;40.01;94837.38;5045081;28;20032;-79
2024/04/04 01:19:51;;;;;;;3.35;1.33;;;;;;;13.54;40.06;94841.81;5046426;28;20086;-81
2024/04/04 01:22:16;;;;;;;2.45;1.30;;;;;;;13.51;39.99;94842.72;5028685;28;20037;-80
2024/04/04 01:24:42;;;;;;;4.30;1.40;;;;;;;13.50;39.91;94840.44;5046510;28;20025;-81
2024/04/04 01:27:08;;;;;;;2.50;1.45;;;;;;;13.51;39.53;94845.50;5047018;28;20510;-82
2024/04/04 01:29:33;;;;;;;4.25;1.67;;;;;;;13.52;39.63;94844.25;5044900;28;20028;-81
2024/04/04 01:31:59;;;;;;;2.90;1.60;;;;;;;13.53;39.81;94836.75;5028728;28;20413;-81
2024/04/04 01:34:24;;;;;;;6.57;1.63;;;;;;;13.56;39.86;94844.13;5028221;28;20433;-80
2024/04/04 01:36:49;;;;;;;7.68;2.00;;;;;;;13.52;39.85;94846.25;5047097;28;20025;-81
2024/04/04 01:39:15;;;;;;;4.28;1.70;;;;;;;13.53;40.13;94851.34;5044962;28;20044;-82
2024/04/04 01:41:43;;;;;;;6.05;1.55;;;;;;;13.49;40.69;94853.47;5046510;28;20033;-81
2024/04/04 01:44:09;;;;;;;3.33;1.63;;;;;;;13.48;40.86;94849.19;5045745;28;20021;-82
2024/04/04 01:46:34;;;;;;;4.85;1.77;;;;;;;13.45;40.99;94843.78;5049609;28;20370;-81
2024/04/04 01:49:00;;;;;;;3.72;1.65;;;;;;;13.39;41.29;94846.38;5049546;28;20021;-82
2024/04/04 01:51:25;;;;;;;5.68;1.60;;;;;;;13.36;41.59;94846.53;5050056;28;20480;-80
2024/04/04 01:53:50;;;;;;;6.30;1.92;;;;;;;13.36;41.75;94846.53;5048837;28;20053;-80
2024/04/04 01:56:16;;;;;;;5.28;2.17;;;;;;;13.35;41.94;94850.53;5050309;28;20025;-79
2024/04/04 01:58:41;;;;;;;5.47;2.70;;;;;;;13.39;41.94;94849.16;5048466;28;20115;-80
2024/04/04 02:01:07;;;;;;;4.60;2.20;;;;;;;13.37;42.00;94843.34;5050287;28;20434;-83
2024/04/04 02:03:32;;;;;;;4.93;2.08;;;;;;;13.36;42.05;94836.28;5048802;28;20029;-80
2024/04/04 02:05:57;;;;;;;4.45;2.53;;;;;;;13.27;42.16;94852.81;5050366;28;20258;-80
2024/04/04 02:08:23;;;;;;;5.65;2.25;;;;;;;13.21;42.19;94840.84;5051785;28;20502;-80
2024/04/04 02:10:48;;;;;;;4.65;1.98;;;;;;;13.13;42.49;94839.53;5050321;28;20090;-80
2024/04/04 02:13:14;;;;;;;3.78;2.08;;;;;;;13.14;42.65;94852.91;5054721;28;20107;-79
2024/04/04 02:15:40;;;;;;;5.18;2.08;;;;;;;13.09;42.86;94845.22;5054352;28;20026;-80
2024/04/04 02:18:06;;;;;;;5.85;1.77;;;;;;;13.10;42.62;94844.00;5049039;28;20029;-78
2024/04/04 02:20:32;;;;;;;4.13;1.80;;;;;;;13.06;42.77;94831.56;5032097;28;20479;-80
2024/04/04 02:22:58;;;;;;;6.65;2.28;;;;;;;13.06;43.25;94837.06;5049333;28;20025;-82
2024/04/04 02:25:23;;;;;;;5.38;1.52;;;;;;;12.99;43.59;94840.88;5048445;28;20024;-80
2024/04/04 02:27:48;;;;;;;3.35;1.50;;;;;;;12.93;43.56;94842.72;5050347;28;20277;-81
2024/04/04 02:30:14;;;;;;;5.53;1.67;;;;;;;12.89;43.54;94840.06;5050145;28;20098;-81
2024/04/04 02:32:39;;;;;;;5.22;1.63;;;;;;;12.84;43.25;94842.66;5031383;28;20415;-81
2024/04/04 02:35:05;;;;;;;4.00;1.60;;;;;;;12.81;43.40;94844.34;5048637;28;20033;-80
2024/04/04 02:37:30;;;;;;;5.38;2.08;;;;;;;12.80;43.51;94844.81;5047791;28;20076;-81
2024/04/04 02:39:56;;;;;;;5.07;1.40;;;;;;;12.77;43.38;94841.72;5049512;28;20044;-80
2024/04/04 02:42:21;;;;;;;5.97;2.13;;;;;;;12.83;43.48;94843.88;5031458;28;20032;-81
2024/04/04 02:44:47;;;;;;;7.20;2.10;;;;;;;12.82;43.17;94848.63;5049229;28;20395;-81
2024/04/04 02:47:12;;;;;;;9.50;2.15;;;;;;;12.75;43.45;94849.69;5048542;28;20032;-81
2024/04/04 02:49:38;;;;;;;6.63;1.80;;;;;;;12.77;43.31;94851.97;5048287;28;20033;-81
2024/04/04 02:52:04;;;;;;;4.07;1.60;;;;;;;12.66;43.60;94829.56;5031170;28;20656;-81
2024/04/04 02:54:29;;;;;;;4.68;1.52;;;;;;;12.72;43.54;94852.56;5047683;28;20025;-81
2024/04/04 02:56:54;;;;;;;3.60;1.90;;;;;;;12.66;43.54;94846.09;5047974;28;20453;-80
2024/04/04 02:59:20;;;;;;;5.10;1.83;;;;;;;12.66;43.54;94846.09;5049110;28;20569;-81
2024/04/04 03:01:45;;;;;;;5.40;1.38;;;;;;;12.64;43.87;94848.56;5047548;28;20116;-81
2024/04/04 03:04:11;;;;;;;5.00;1.80;;;;;;;12.64;43.82;94854.84;5047610;28;20029;-81
2024/04/04 03:06:37;;;;;;;5.10;2.25;;;;;;;12.51;43.91;94837.63;5047959;28;20094;-81
2024/04/04 03:09:08;;;;;;;8.93;2.25;;;;;;;12.60;43.72;94836.88;5031021;28;20610;-79
2024/04/04 03:11:35;;;;;;;7.65;2.25;;;;;;;12.58;43.98;94842.88;5047295;28;20037;-80
2024/04/04 03:14:00;;;;;;;11.43;2.60;;;;;;;12.58;43.94;94840.09;5047493;28;20108;-79
2024/04/04 03:16:25;;;;;;;8.15;3.00;;;;;;;12.58;44.12;94839.34;5047056;28;20128;-81
2024/04/04 03:18:51;;;;;;;7.40;2.60;;;;;;;12.62;43.96;94835.22;5048714;28;20025;-80
2024/04/04 03:21:16;;;;;;;4.28;1.98;;;;;;;12.59;43.94;94841.63;5047286;28;20025;-82
2024/04/04 03:23:42;;;;;;;5.90;2.25;;;;;;;12.62;43.77;94839.97;5048497;28;20445;-80
2024/04/04 03:26:07;;;;;;;5.40;2.35;;;;;;;12.58;43.88;94842.88;5047343;28;20024;-81
2024/04/04 03:28:32;;;;;;;6.43;2.63;;;;;;;12.53;44.35;94843.44;5046965;28;20112;-80
2024/04/04 03:30:58;;;;;;;7.95;2.75;;;;;;;12.49;44.35;94838.06;5048486;28;20021;-81
2024/04/04 03:33:23;;;;;;;8.10;2.95;;;;;;;12.49;44.38;94840.03;5047268;28;20052;-80
2024/04/04 03:35:48;;;;;;;7.70;3.00;;;;;;;12.50;44.11;94836.06;5046727;28;20045;-80
2024/04/04 03:38:14;;;;;;;6.75;2.60;;;;;;;12.49;44.29;94843.56;5046827;28;20049;-80
2024/04/04 03:40:39;;;;;;;4.88;2.30;;;;;;;12.49;44.27;94842.81;5030268;28;20062;-80
2024/04/04 03:43:06;;;;;;;6.25;2.50;;;;;;;12.49;44.14;94846.31;5047405;28;20442;-78
2024/04/04 03:45:38;;;;;;;4.80;2.30;;;;;;;12.47;44.34;94848.00;5030108;28;20036;-80
2024/04/04 03:48:04;;;;;;;6.78;2.42;;;;;;;12.44;44.61;94844.19;5047204;28;20032;-79
2024/04/04 03:50:29;;;;;;;10.13;3.20;;;;;;;12.42;44.40;94851.34;5048020;28;20021;-78
2024/04/04 03:52:55;;;;;;;9.43;2.72;;;;;;;12.42;43.93;94846.59;5046659;28;20029;-78
2024/04/04 03:55:20;;;;;;;9.93;3.58;;;;;;;12.40;43.94;94840.78;5048006;28;20021;-80
2024/04/04 03:57:45;;;;;;;13.60;2.72;;;;;;;12.43;44.54;94847.38;5029692;28;20059;-79
2024/04/04 04:00:11;;;;;;;7.57;3.28;;;;;;;12.47;44.68;94850.78;5046651;28;20021;-78
2024/04/04 04:02:37;;;;;;;9.30;3.35;;;;;;;12.45;44.67;94848.47;5046226;28;20033;-78
2024/04/04 04:05:03;;;;;;;13.38;3.53;;;;;;;12.44;44.36;94846.13;5046382;28;20021;-79
2024/04/04 04:07:29;;;;;;;12.85;3.80;;;;;;;12.44;44.20;94849.69;5029501;28;20099;-79
2024/04/04 04:09:54;;;;;;;12.75;4.50;;;;;;;12.36;44.58;94840.13;5047595;28;20013;-79
2024/04/04 04:12:20;;;;;;;10.35;2.90;;;;;;;12.40;44.99;94854.56;5046551;28;20208;-79
2024/04/04 04:14:45;;;;;;;8.93;2.95;;;;;;;12.43;44.86;94859.16;5046030;28;20033;-79
2024/04/04 04:17:11;;;;;;;10.15;3.72;;;;;;;12.42;44.61;94865.91;5029427;28;20056;-80
2024/04/04 04:19:37;;;;;;;11.73;3.90;;;;;;;12.41;44.63;94867.13;5029381;28;20130;-79
2024/04/04 04:22:03;;;;;;;10.32;4.20;;;;;;;12.45;44.63;94864.25;5046470;28;20039;-80
2024/04/04 04:24:28;;;;;;;14.15;4.57;;;;;;;12.40;44.58;94865.59;5046004;28;20112;-80
2024/04/04 04:26:54;;;;;;;12.85;4.45;;;;;;;12.38;44.69;94870.78;5045973;28;20049;-80
2024/04/04 04:29:20;;;;;;;18.08;3.78;;;;;;;12.43;44.68;94875.69;5047608;28;20495;-78
2024/04/04 04:31:45;;;;;;;20.77;5.20;;;;;;;12.44;45.16;94876.47;5029041;28;20119;-79
2024/04/04 04:34:11;;;;;;;20.60;4.50;;;;;;;12.45;44.94;94881.56;5046003;28;20570;-79
2024/04/04 04:36:40;;;;;;;14.48;4.40;;;;;;;12.48;45.21;94882.63;5045558;28;20104;-78
2024/04/04 04:39:05;;;;;;;17.88;4.47;;;;;;;12.40;45.17;94876.63;5045749;28;20547;-79
2024/04/04 04:41:31;;;;;;;23.25;5.30;;;;;;;12.43;45.01;94883.97;5045851;28;20029;-81
2024/04/04 04:43:57;;;;;;;13.30;5.18;;;;;;;12.53;45.25;94889.56;5029812;28;20028;-82
2024/04/04 04:46:22;;;;;;;15.98;6.55;;;;;;;12.47;45.29;94890.13;5047393;28;20033;-77
2024/04/04 04:48:48;;;;;;;21.15;7.00;;;;;;;12.49;45.22;94886.91;5045531;28;20342;-80
2024/04/04 04:51:13;;;;;;;14.63;6.97;;;;;;;12.54;44.94;94893.84;5045869;28;20525;-81
2024/04/04 04:53:39;;;;;;;14.65;4.95;;;;;;;12.52;44.43;94893.53;5046070;28;20040;-81
2024/04/04 04:56:05;;;;;;;15.05;5.03;;;;;;;12.52;43.98;94890.78;5029568;28;20040;-82
2024/04/04 04:58:31;;;;;;;14.75;4.65;;;;;;;12.54;43.53;94902.13;5029575;28;20078;-82
2024/04/04 05:00:57;;;;;;;30.35;5.18;;;;;;;12.50;43.37;94905.00;5045565;28;20488;-80
2024/04/04 05:03:23;;;;;;;10.88;3.97;;;;;;;12.59;42.89;94907.06;5045675;28;20174;-80
2024/04/04 05:05:50;;;;;;;13.07;4.00;;;;;;;12.52;43.00;94907.31;5028343;28;20048;-80
2024/04/04 05:08:16;;;;;;;13.45;4.03;;;;;;;12.56;42.42;94903.22;5046891;28;20028;-80
2024/04/04 05:10:43;;;;;;;16.15;4.05;;;;;;;12.59;42.15;94907.06;5038085;28;20031;-79
2024/04/04 05:13:09;;;;;;;11.80;2.72;;;;;;;12.61;41.97;94912.88;5051510;28;20660;-81
2024/04/04 05:15:43;;;;;;;10.32;3.88;;;;;;;12.62;41.68;94906.94;5045062;28;20043;-81
2024/04/04 05:18:08;;;;;;;9.88;3.47;;;;;;;12.54;41.32;94896.59;5045734;28;20491;-82
2024/04/04 05:20:34;;;;;;;11.40;3.88;;;;;;;12.63;41.25;94916.75;5046568;28;20032;-80
2024/04/04 05:22:59;;;;;;;9.85;3.20;;;;;;;12.61;41.10;94923.91;5049663;28;20056;-81
2024/04/04 05:25:27;;;;;;;9.82;3.35;;;;;;;12.61;40.96;94921.91;5049607;28;20021;-81
2024/04/04 05:27:52;;;;;;;10.05;3.63;;;;;;;12.61;41.04;94921.16;5049038;28;20439;-82
2024/04/04 05:30:17;;;;;;;13.77;3.40;;;;;;;12.66;40.75;94918.59;5049484;28;20044;-80
2024/04/04 05:32:43;;;;;;;10.80;3.70;;;;;;;12.65;40.54;94916.28;5049306;28;20092;-80
2024/04/04 05:35:08;;;;;;;14.10;3.78;;;;;;;12.71;40.37;94928.28;5049533;28;20179;-82
2024/04/04 05:37:36;;;;;;;10.32;3.28;;;;;;;12.73;40.35;94926.63;5049048;28;20094;-81
2024/04/04 05:40:03;;;;;;;15.10;4.70;;;;;;;12.71;40.82;94917.22;5049718;28;20093;-80
2024/04/04 05:42:30;;;;;;;21.92;5.80;;;;;;;12.78;41.48;94914.19;5049522;28;20088;-81
2024/04/04 05:44:55;;;;;;;16.02;4.15;;;;;;;12.86;42.05;94923.00;5049088;28;20064;-81
2024/04/04 05:47:21;;;;;;;17.55;5.40;;;;;;;12.90;42.07;94918.88;5050543;28;20056;-81
2024/04/04 05:49:46;;;;;;;13.80;5.18;;;;;;;12.93;41.95;94923.50;5049118;28;20051;-82
2024/04/04 05:52:11;;;;;;;18.08;5.22;;;;;;;12.94;42.04;94933.28;5049066;28;20025;-81
2024/04/04 05:54:39;;;;;;;15.82;5.50;;;;;;;12.96;42.20;94930.06;5049087;28;20078;-81
2024/04/04 05:57:05;;;;;;;18.17;4.55;;;;;;;13.00;42.02;94930.72;5049128;28;20021;-81
2024/04/04 05:59:30;;;;;;;12.52;4.25;;;;;;;13.02;42.00;94934.59;5049391;28;20384;-81
2024/04/04 06:01:55;;;;;;;8.73;3.70;;;;;;;13.06;41.78;94933.66;5048778;28;20354;-81
2024/04/04 06:04:27;;;;;;;9.77;3.40;;;;;;;13.10;41.81;94934.31;5050345;28;20107;-81
2024/04/04 06:06:52;;;;;;;13.18;3.83;;;;;;;13.16;41.62;94933.25;5031920;28;20549;-81
2024/04/04 06:09:18;;;;;;;9.73;2.92;;;;;;;13.24;41.40;94929.00;5048817;28;20056;-82
2024/04/04 06:11:43;;;;;;;10.50;3.00;;;;;;;13.25;40.95;94932.56;5048323;28;20115;-82
2024/04/04 06:14:08;;;;;;;11.07;3.33;;;;;;;13.20;41.11;94930.38;5032069;28;20017;-79
2024/04/04 06:16:35;;;;;;;11.38;4.10;;;;;;;13.25;41.07;94947.13;5049913;28;20021;-80
2024/04/04 06:19:00;;;;;;;11.88;4.10;;;;;;;13.26;41.11;94939.63;5049129;28;20040;-80
2024/04/04 06:21:26;;;;;;;9.27;4.05;;;;;;;13.33;41.12;94935.81;5049958;28;20029;-80
2024/04/04 06:23:51;;;;;;;12.38;4.00;;;;;;;13.36;40.84;94941.19;5060745;28;20503;-79
2024/04/04 06:26:17;;;;;;;14.02;4.10;;;;;;;13.44;40.90;94949.97;5048752;28;20094;-80
2024/04/04 06:28:44;;;;;;;12.98;3.72;;;;;;;13.47;40.40;94960.84;5048332;28;20021;-81
2024/04/04 06:31:10;;;;;;;13.07;4.70;;;;;;;13.52;40.35;94949.19;5031586;28;20076;-81
2024/04/04 06:33:35;;;;;;;10.18;4.25;;;;;;;13.54;40.45;94946.00;5049749;28;20092;-82
2024/04/04 06:36:01;;;;;;;10.70;3.80;;;;;;;13.61;39.60;94947.72;5048549;28;20041;-81
2024/04/04 06:38:26;;;;;;;7.30;3.10;;;;;;;13.68;38.70;94950.94;5048231;28;20091;-81
2024/04/04 06:40:51;;;;;;;6.22;3.00;;;;;;;13.73;38.30;94950.34;5031071;28;20057;-82
2024/04/04 06:43:17;;;;;;;11.13;3.15;;;;;;;13.89;37.06;94956.84;5049447;28;20025;-80
2024/04/04 06:45:42;;;;;;;8.02;2.38;;;;;;;13.96;36.38;94960.06;5048055;28;20024;-81
2024/04/04 06:48:07;;;;;;;11.98;2.38;;;;;;;14.06;36.13;94960.84;5031192;28;20049;-80
2024/04/04 06:50:33;;;;;;;6.43;1.95;;;;;;;14.21;34.88;94961.00;5031095;28;20033;-81
2024/04/04 06:52:58;;;;;;;7.18;1.92;;;;;;;14.35;33.43;94958.41;5047498;28;20017;-81
2024/04/04 06:55:23;;;;;;;5.18;1.80;;;;;;;14.48;33.67;94969.34;5047796;28;20041;-81
2024/04/04 06:57:49;;;;;;;8.77;1.95;;;;;;;14.53;33.50;94957.66;5047592;28;20086;-81
2024/04/04 07:00:15;;;;;;;5.50;2.20;;;;;;;14.65;32.91;94957.97;5049196;28;20505;-81
2024/04/04 07:02:41;;;;;;;3.70;1.73;;;;;;;14.77;33.07;94955.00;5047494;28;20033;-80
2024/04/04 07:05:06;;;;;;;5.40;1.60;;;;;;;14.86;32.28;94963.31;5049011;28;20025;-81
2024/04/04 07:07:32;;;;;;;3.83;2.00;;;;;;;14.95;31.92;94958.97;5047818;28;20041;-81
2024/04/04 07:09:57;;;;;;;6.93;2.17;;;;;;;15.04;31.83;94964.50;5049187;28;20021;-82
2024/04/04 07:12:23;;;;;;;4.35;1.70;;;;;;;15.07;31.56;94964.31;5048839;28;20049;-82
2024/04/04 07:14:48;;;;;;;5.45;2.10;;;;;;;15.12;31.55;94957.41;5032103;28;20029;-80
2024/04/04 07:17:14;;;;;;;5.20;2.10;;;;;;;15.26;31.04;94956.00;5036401;28;20145;-81
2024/04/04 07:19:39;;;;;;;5.70;1.80;;;;;;;15.33;30.34;94959.19;5039039;28;20029;-81
2024/04/04 07:22:05;;;;;;;3.10;1.52;;;;;;;15.36;30.03;94965.78;5053913;28;20041;-80
2024/04/04 07:24:30;;;;;;;5.07;1.90;;;;;;;15.37;29.98;94965.34;5054252;28;20384;-80
2024/04/04 07:26:55;;;;;;;5.97;1.80;;;;;;;15.44;30.22;94958.69;5049296;28;20110;-81
2024/04/04 07:29:21;;;;;;;4.97;1.50;;;;;;;15.49;30.18;94952.50;5031470;28;20043;-80
2024/04/04 07:31:46;;;;;;;5.57;1.23;;;;;;;15.55;30.27;94956.16;5047843;28;20083;-80
2024/04/04 07:34:12;;;;;;;3.72;1.60;;;;;;;15.69;30.60;94963.06;5031546;28;20025;-81
2024/04/04 07:36:37;;;;;;;3.97;1.30;;;;;;;15.70;30.47;94961.81;5059687;28;20339;-82
2024/04/04 07:39:04;;;;;;;7.78;1.30;;;;;;;15.75;30.60;94966.72;5051012;28;20568;-83
2024/04/04 07:41:30;;;;;;;6.43;1.65;;;;;;;15.85;30.64;94954.34;5030538;28;20573;-82
2024/04/04 07:43:55;;;;;;;3.67;1.55;;;;;;;15.90;30.45;94962.03;5048414;28;20052;-81
2024/04/04 07:46:21;;;;;;;6.50;1.58;;;;;;;16.01;31.08;94969.81;5048873;28;20141;-82
2024/04/04 07:48:47;;;;;;;6.05;1.50;;;;;;;16.09;31.53;94970.22;5046734;28;20047;-82
2024/04/04 07:51:17;;;;;;;10.35;1.50;;;;;;;16.13;31.53;94966.03;5030150;28;20041;-81
2024/04/04 07:53:42;;;;;;;4.35;2.22;;;;;;;16.25;31.18;94966.25;5046646;28;20063;-82
2024/04/04 07:56:08;;;;;;;12.23;2.83;;;;;;;16.37;31.14;94957.69;5030657;28;20041;-82
2024/04/04 07:58:33;;;;;;;10.00;2.60;;;;;;;16.49;31.08;94961.44;5048462;28;20063;-82
2024/04/04 08:00:59;;;;;;;6.68;1.70;;;;;;;16.55;30.81;94967.09;5029515;28;20458;-83
2024/04/04 08:03:25;;;;;;;4.18;2.00;;;;;;;16.65;30.98;94957.47;5048030;28;20102;-81
2024/04/04 08:05:54;;;;;;;5.03;1.55;;;;;;;16.81;30.99;94970.16;5030802;28;20056;-82
2024/04/04 08:08:20;;;;;;;8.30;2.08;;;;;;;16.88;30.91;94961.44;5047124;28;20063;-82
2024/04/04 08:10:48;;;;;;;8.00;2.13;;;;;;;17.05;30.50;94958.97;5047615;28;20025;-82
2024/04/04 08:13:14;;;;;;;12.02;2.50;;;;;;;17.11;30.24;94959.84;5046713;28;20021;-82
2024/04/04 08:15:39;;;;;;;6.75;1.83;;;;;;;17.18;30.00;94962.97;5029950;28;20047;-81
2024/04/04 08:18:04;;;;;;;5.22;1.83;;;;;;;17.33;29.78;94965.00;5048137;28;20097;-82
2024/04/04 08:20:30;;;;;;;5.90;1.67;;;;;;;17.36;29.55;94970.34;5046295;28;20037;-79
2024/04/04 08:22:56;;;;;;;7.13;2.13;;;;;;;17.50;29.63;94977.16;5029235;28;20025;-81
2024/04/04 08:25:21;;;;;;;8.70;2.90;;;;;;;17.66;29.66;94965.53;5046349;28;20163;-82
2024/04/04 08:27:47;;;;;;;7.05;2.20;;;;;;;17.77;29.67;94974.03;5047495;28;20363;-81
2024/04/04 08:30:13;;;;;;;7.43;1.95;;;;;;;17.93;29.46;94960.88;5029629;28;20024;-81
2024/04/04 08:32:38;;;;;;;3.78;1.35;;;;;;;18.07;29.08;94971.19;5029549;28;20459;-82
2024/04/04 08:35:06;;;;;;;7.43;1.85;;;;;;;18.19;29.07;94967.31;5046054;28;20108;-75
2024/04/04 08:37:32;;;;;;;5.05;1.70;;;;;;;18.30;28.83;94967.44;5047133;28;20052;-81
2024/04/04 08:39:58;;;;;;;8.77;2.67;;;;;;;18.54;28.80;94955.34;5045601;28;20028;-81
2024/04/04 08:42:27;;;;;;;5.15;2.05;;;;;;;18.77;28.00;94964.72;5028723;28;20029;-78
2024/04/04 08:44:53;;;;;;;5.20;2.53;;;;;;;19.04;27.27;94969.06;5029005;28;20029;-78
2024/04/04 08:47:20;;;;;;;6.20;2.08;;;;;;;19.24;27.58;94977.34;5045959;28;20039;-79
2024/04/04 08:49:47;;;;;;;10.57;2.80;;;;;;;19.42;27.66;94964.31;5046609;28;20064;-76
2024/04/04 08:52:14;;;;;;;8.75;1.88;;;;;;;19.51;26.97;94972.50;5050874;28;20498;-73
2024/04/04 08:54:40;;;;;;;6.13;1.80;;;;;;;19.55;26.96;94968.22;5045578;28;20479;-80
2024/04/04 08:57:10;;;;;;;4.15;1.90;;;;;;;19.70;26.28;94959.75;5046428;28;20033;-79
2024/04/04 08:59:35;;;;;;;7.45;1.90;;;;;;;19.94;26.58;94964.97;5046901;28;20181;-78
2024/04/04 09:02:01;;;;;;;5.85;1.60;;;;;;;20.06;26.91;94968.59;5045099;28;20169;-78
2024/04/04 09:04:30;;;;;;;5.20;2.00;;;;;;;20.18;26.45;94975.75;5028792;28;20028;-79
2024/04/04 09:06:56;;;;;;;8.50;2.50;;;;;;;20.36;26.83;94964.22;5045083;28;20045;-78
2024/04/04 09:09:23;;;;;;;5.65;2.20;;;;;;;20.63;26.36;94962.81;5046466;28;20093;-79
2024/04/04 09:11:49;;;;;;;5.72;1.52;;;;;;;20.72;25.91;94972.25;5045318;28;20391;-78
2024/04/04 09:14:15;;;;;;;7.50;1.70;;;;;;;20.77;25.11;94972.25;5045431;28;20479;-77
2024/04/04 09:16:41;;;;;;;4.38;1.38;;;;;;;20.84;24.91;94955.00;5045458;28;20029;-77
2024/04/04 09:19:12;;;;;;;7.32;1.55;;;;;;;21.06;25.10;94959.88;5044871;28;20032;-79
2024/04/04 09:21:39;;;;;;;8.10;1.33;;;;;;;21.21;24.88;94959.63;5046589;28;20036;-78
2024/04/04 09:24:06;;;;;;;4.22;1.90;;;;;;;21.52;24.58;94952.31;5045018;28;20059;-78
2024/04/04 09:26:32;;;;;;;10.57;2.67;;;;;;;21.78;24.27;94946.44;5028459;28;20174;-80
2024/04/04 09:28:58;;;;;;;3.50;1.50;;;;;;;21.99;23.91;94947.69;5046514;28;20100;-80
2024/04/04 09:31:27;;;;;;;4.03;1.40;;;;;;;21.84;23.12;94942.38;5046396;28;20052;-79
2024/04/04 09:33:55;;;;;;;3.85;1.60;;;;;;;22.17;23.24;94946.41;5045325;28;20025;-79
2024/04/04 09:36:20;;;;;;;6.50;2.30;;;;;;;22.39;22.97;94939.97;5045150;28;20036;-78
2024/04/04 09:38:46;;;;;;;6.97;1.52;;;;;;;22.61;22.67;94944.72;5028064;28;20037;-78
2024/04/04 09:41:12;;;;;;;6.20;1.83;;;;;;;22.80;22.01;94946.41;5028226;28;20029;-77
2024/04/04 09:43:37;;;;;;;4.30;2.00;;;;;;;22.91;21.63;94944.84;5028596;28;20526;-77
2024/04/04 09:46:03;;;;;;;8.65;1.73;;;;;;;23.11;22.09;94936.09;5028243;28;20029;-78
2024/04/04 09:48:28;;;;;;;7.80;1.58;;;;;;;23.31;21.21;94932.09;5044834;28;20021;-76
2024/04/04 09:50:55;;;;;;;6.47;1.52;;;;;;;23.33;20.82;94937.94;5044828;28;20060;-77
2024/04/04 09:53:22;;;;;;;5.82;1.95;;;;;;;23.67;21.35;94937.72;5044831;28;20047;-78
2024/04/04 09:55:48;;;;;;;4.50;1.55;;;;;;;23.83;20.57;94942.41;5012147;28;20035;-75
2024/04/04 09:58:14;;;;;;;2.83;1.20;;;;;;;24.11;20.21;94931.66;5044877;28;20017;-78
2024/04/04 10:00:42;;;;;;;8.90;2.08;;;;;;;24.47;20.07;94945.59;5044712;28;20037;-78
2024/04/04 10:03:14;;;;;;;5.03;1.52;;;;;;;24.56;19.17;94934.00;5044718;28;20083;-78
2024/04/04 10:05:40;;;;;;;4.15;1.52;;;;;;;24.80;19.48;94924.00;5046639;28;20021;-78
2024/04/04 10:08:10;;;;;;;3.88;1.40;;;;;;;24.96;19.38;94927.88;5058391;28;20044;-78
2024/04/04 10:10:36;;;;;;;4.07;1.45;;;;;;;25.22;19.04;94930.06;5032175;28;20028;-78
2024/04/04 10:13:11;;;;;;;4.88;1.42;;;;;;;25.45;18.75;94924.84;5048424;28;20032;-78
2024/04/04 10:15:47;;;;;;;6.50;1.52;;;;;;;25.75;18.61;94924.63;5031878;28;20025;-78
2024/04/04 10:18:13;;;;;;;7.85;1.50;;;;;;;26.14;18.00;94932.41;5048297;28;20024;-76
2024/04/04 10:20:44;;;;;;;4.15;1.85;;;;;;;26.42;17.63;94912.91;5031284;28;20036;-79
2024/04/04 10:23:13;;;;;;;5.65;2.05;;;;;;;26.64;17.48;94922.22;5047856;28;20033;-78
2024/04/04 10:25:42;;;;;;;5.30;1.38;;;;;;;26.89;17.19;94917.84;5049932;28;20035;-78
2024/04/04 10:28:08;;;;;;;3.90;1.15;;;;;;;27.27;16.42;94920.38;5047843;28;20492;-79
2024/04/04 10:30:37;;;;;;;4.32;1.55;;;;;;;27.78;15.71;94931.25;5047588;28;20067;-79
2024/04/04 10:33:13;;;;;;;5.88;1.80;;;;;;;28.21;15.71;94939.09;5047013;28;20041;-78
2024/04/04 10:35:38;;;;;;;2.05;0.98;;;;;;;28.93;15.48;94920.72;5048063;28;20392;-78
2024/04/04 10:38:08;;;;;;;6.00;2.00;;;;;;;29.33;15.25;94924.63;5049110;28;20045;-78
2024/04/04 10:40:33;;;;;;;5.03;1.70;;;;;;;29.84;14.75;94928.69;5031101;28;20029;-79
2024/04/04 10:42:59;;;;;;;6.63;1.10;;;;;;;30.39;14.25;94930.94;5031318;28;20028;-80
2024/04/04 10:45:28;;;;;;;3.45;1.30;;;;;;;30.35;14.23;94922.09;5048008;28;20104;-79
2024/04/04 10:47:58;;;;;;;5.43;1.85;;;;;;;29.73;14.38;94921.31;5047749;28;20027;-79
2024/04/04 10:50:27;;;;;;;5.32;1.60;;;;;;;28.98;15.35;94931.88;5030819;28;20482;-78
2024/04/04 10:52:53;;;;;;;3.28;1.10;;;;;;;29.20;15.18;94924.78;5047457;28;20032;-78
2024/04/04 10:55:20;;;;;;;3.88;1.55;;;;;;;29.75;14.61;94924.31;5049319;28;20023;-80
2024/04/04 10:57:48;;;;;;;5.90;1.25;;;;;;;29.14;14.99;94926.28;5047469;28;20037;-79
2024/04/04 11:00:14;;;;;;;6.93;1.55;;;;;;;30.70;14.09;94925.25;5047938;28;20115;-78
2024/04/04 11:02:46;;;;;;;4.53;1.60;;;;;;;31.21;13.63;94924.84;5048736;28;20060;-81
2024/04/04 11:05:12;;;;;;;3.28;1.35;;;;;;;29.99;14.43;94917.34;5048493;28;20029;-78
2024/04/04 11:07:42;;;;;;;3.35;1.20;;;;;;;29.07;14.94;94919.25;5048835;28;20399;-79
2024/04/04 11:10:08;;;;;;;3.55;1.40;;;;;;;29.08;15.20;94930.03;5047290;28;20033;-80
2024/04/04 11:12:34;;;;;;;4.05;1.38;;;;;;;29.27;15.00;94924.03;5047739;28;20495;-81
2024/04/04 11:15:05;;;;;;;4.13;1.45;;;;;;;29.81;14.00;94919.22;5047078;28;20107;-80
2024/04/04 11:17:31;;;;;;;6.40;1.67;;;;;;;29.83;14.34;94907.34;5047100;28;20025;-80
2024/04/04 11:20:16;;;;;;;7.28;1.60;;;;;;;30.85;14.24;94922.34;5048156;28;20025;-81
2024/04/04 11:22:42;;;;;;;7.43;1.77;;;;;;;31.32;13.51;94927.28;5049353;28;20028;-81
2024/04/04 11:25:08;;;;;;;2.90;1.10;;;;;;;31.45;13.42;94915.66;5055023;28;20025;-81
2024/04/04 11:27:37;;;;;;;3.08;1.52;;;;;;;30.96;14.01;94919.09;5047493;28;20044;-79